Time;durP1;ratioP1;P1;durP2;ratioP2;P2;SDS_P1;SDS_P2;PMS_P1;PMS_P2;Temp;Humidity;BMP_temperature;BMP_pressure;BME280_temperature;BME280_humidity;BME280_pressure;Samples;Min_cycle;Max_cycle;Signal;HPM_P1;HPM_P2
2022/10/13 00:00:06;;;;;;;0.10;0.10;;;;;;;;;;5026849;28;20455;-76
2022/10/13 00:02:32;;;;;;;0.10;0.10;;;;;;;;;;5029530;28;20914;-74
2022/10/13 00:04:58;;;;;;;0.60;0.40;;;;;;;;;;5025062;28;20828;-75
2022/10/13 00:07:24;;;;;;;0.68;0.60;;;;;;;;;;5008844;28;20935;-74
2022/10/13 00:09:50;;;;;;;0.50;0.50;;;;;;;;;;5030117;28;21066;-74
2022/10/13 00:12:16;;;;;;;0.10;0.10;;;;;;;;;;5004156;28;20494;-75
2022/10/13 00:14:42;;;;;;;0.10;0.10;;;;;;;;;;5030843;28;20937;-75
2022/10/13 00:17:08;;;;;;;0.10;0.10;;;;;;;;;;5030617;28;20975;-74
2022/10/13 00:19:34;;;;;;;0.10;0.10;;;;;;;;;;5030968;28;20427;-75
2022/10/13 00:22:00;;;;;;;0.73;0.73;;;;;;;;;;5031727;28;20424;-74
2022/10/13 00:24:26;;;;;;;0.10;0.10;;;;;;;;;;5029429;28;20429;-75
2022/10/13 00:26:52;;;;;;;0.00;0.00;;;;;;;;;;5032595;28;20422;-76
2022/10/13 00:29:19;;;;;;;0.10;0.10;;;;;;;;;;5032009;28;20427;-75
2022/10/13 00:31:45;;;;;;;0.20;0.20;;;;;;;;;;5014512;28;20831;-74
2022/10/13 00:34:11;;;;;;;0.00;0.00;;;;;;;;;;5015818;28;20902;-74
2022/10/13 00:36:37;;;;;;;0.10;0.10;;;;;;;;;;5030736;28;20510;-75
2022/10/13 00:39:03;;;;;;;0.00;0.00;;;;;;;;;;5032386;28;20431;-75
2022/10/13 00:41:29;;;;;;;0.40;0.17;;;;;;;;;;5031606;28;20800;-74
2022/10/13 00:43:56;;;;;;;0.10;0.10;;;;;;;;;;5014853;28;20925;-74
2022/10/13 00:46:22;;;;;;;0.00;0.00;;;;;;;;;;5005528;28;20852;-76
2022/10/13 00:48:49;;;;;;;0.00;0.00;;;;;;;;;;5009969;28;20430;-75
2022/10/13 00:51:17;;;;;;;0.08;0.08;;;;;;;;;;5030735;28;20434;-74
2022/10/13 00:53:44;;;;;;;0.00;0.00;;;;;;;;;;5015952;28;20434;-76
2022/10/13 00:56:11;;;;;;;0.40;0.40;;;;;;;;;;5029281;28;20985;-75
2022/10/13 00:58:38;;;;;;;0.00;0.00;;;;;;;;;;5015077;28;20431;-75
2022/10/13 01:01:05;;;;;;;0.00;0.00;;;;;;;;;;5029603;28;20423;-75
2022/10/13 01:03:31;;;;;;;0.05;0.05;;;;;;;;;;5015464;28;20423;-74
2022/10/13 01:05:59;;;;;;;0.08;0.08;;;;;;;;;;5030331;28;20423;-74
2022/10/13 01:08:26;;;;;;;0.00;0.00;;;;;;;;;;5032148;28;20907;-75
2022/10/13 01:10:52;;;;;;;0.00;0.00;;;;;;;;;;5029614;28;20423;-75
2022/10/13 01:13:34;;;;;;;2.47;1.10;;;;;;;;;;5033192;28;20612;-74
2022/10/13 01:16:08;;;;;;;0.20;0.20;;;;;;;;;;5012552;28;21006;-75
2022/10/13 01:18:44;;;;;;;0.10;0.10;;;;;;;;;;5027932;28;20435;-75
2022/10/13 01:21:19;;;;;;;0.20;0.20;;;;;;;;;;5005450;28;20432;-75
2022/10/13 01:23:55;;;;;;;0.30;0.30;;;;;;;;;;5029740;28;20423;-76
2022/10/13 01:26:41;;;;;;;0.10;0.10;;;;;;;;;;5025281;28;20466;-74
2022/10/13 01:29:11;;;;;;;0.40;0.40;;;;;;;;;;5026774;28;20415;-75
2022/10/13 01:31:47;;;;;;;0.20;0.20;;;;;;;;;;5029647;28;20435;-75
2022/10/13 01:34:22;;;;;;;0.10;0.10;;;;;;;;;;5029185;28;20503;-75
2022/10/13 01:36:54;;;;;;;0.20;0.20;;;;;;;;;;5027604;28;20435;-75
2022/10/13 01:39:27;;;;;;;0.20;0.20;;;;;;;;;;5028458;28;20439;-74
2022/10/13 01:41:56;;;;;;;0.30;0.30;;;;;;;;;;5029311;28;20513;-75
2022/10/13 01:44:24;;;;;;;0.10;0.10;;;;;;;;;;5013660;28;20887;-75
2022/10/13 01:46:51;;;;;;;0.20;0.20;;;;;;;;;;5031469;28;20488;-74
2022/10/13 01:49:19;;;;;;;0.68;0.68;;;;;;;;;;5028329;28;20453;-75
2022/10/13 01:51:46;;;;;;;0.13;0.13;;;;;;;;;;5029537;28;20436;-74
2022/10/13 01:54:12;;;;;;;0.10;0.10;;;;;;;;;;5013462;28;20520;-75
2022/10/13 01:56:38;;;;;;;0.10;0.10;;;;;;;;;;5030959;28;20498;-75
2022/10/13 01:59:09;;;;;;;0.10;0.10;;;;;;;;;;5014564;28;20490;-75
2022/10/13 02:01:38;;;;;;;0.30;0.20;;;;;;;;;;5029675;28;20423;-74
2022/10/13 02:04:23;;;;;;;0.10;0.10;;;;;;;;;;5013793;28;20747;-74
2022/10/13 02:06:59;;;;;;;0.20;0.20;;;;;;;;;;5030352;28;20466;-74
2022/10/13 02:09:44;;;;;;;0.10;0.10;;;;;;;;;;5030753;28;20927;-75
2022/10/13 02:12:14;;;;;;;0.10;0.10;;;;;;;;;;5031496;28;20439;-75
2022/10/13 02:14:41;;;;;;;0.20;0.10;;;;;;;;;;5031716;28;20430;-75
2022/10/13 02:17:08;;;;;;;0.00;0.00;;;;;;;;;;5003456;28;20482;-76
2022/10/13 02:19:36;;;;;;;0.70;0.40;;;;;;;;;;5011861;28;20435;-76
2022/10/13 02:22:02;;;;;;;0.00;0.00;;;;;;;;;;5012261;28;20426;-74
2022/10/13 02:24:28;;;;;;;0.10;0.10;;;;;;;;;;5029841;28;20420;-75
2022/10/13 02:26:55;;;;;;;0.40;0.20;;;;;;;;;;5027301;28;20429;-75
2022/10/13 02:29:21;;;;;;;0.10;0.10;;;;;;;;;;5029660;28;20441;-74
2022/10/13 02:31:47;;;;;;;0.10;0.10;;;;;;;;;;5024938;28;20473;-75
2022/10/13 02:34:14;;;;;;;0.10;0.10;;;;;;;;;;5025478;28;21223;-74
2022/10/13 02:36:40;;;;;;;0.20;0.20;;;;;;;;;;5027469;28;20419;-75
2022/10/13 02:39:07;;;;;;;0.10;0.10;;;;;;;;;;5012849;28;20431;-75
2022/10/13 02:41:33;;;;;;;0.10;0.10;;;;;;;;;;5023578;28;20434;-74
2022/10/13 02:43:59;;;;;;;0.10;0.10;;;;;;;;;;5012663;28;20537;-74
2022/10/13 02:46:25;;;;;;;0.10;0.10;;;;;;;;;;5010054;28;20451;-74
2022/10/13 02:48:51;;;;;;;0.33;0.27;;;;;;;;;;5028304;28;20462;-74
2022/10/13 02:51:17;;;;;;;0.50;0.50;;;;;;;;;;5024224;28;20512;-75
2022/10/13 02:53:43;;;;;;;0.10;0.10;;;;;;;;;;5029054;28;20782;-75
2022/10/13 02:56:09;;;;;;;0.15;0.15;;;;;;;;;;5026234;28;20427;-75
2022/10/13 02:58:35;;;;;;;0.22;0.22;;;;;;;;;;5014366;28;20442;-75
2022/10/13 03:01:09;;;;;;;0.80;0.30;;;;;;;;;;5009728;28;20435;-75
2022/10/13 03:03:35;;;;;;;2.00;0.40;;;;;;;;;;5027297;28;20423;-75
2022/10/13 03:06:01;;;;;;;0.10;0.10;;;;;;;;;;5024561;28;20423;-74
2022/10/13 03:08:27;;;;;;;0.50;0.50;;;;;;;;;;5028646;28;20419;-74
2022/10/13 03:10:53;;;;;;;0.10;0.10;;;;;;;;;;5012457;28;20463;-74
2022/10/13 03:13:20;;;;;;;0.20;0.20;;;;;;;;;;5008398;28;20442;-74
2022/10/13 03:15:46;;;;;;;0.30;0.30;;;;;;;;;;5026688;28;20427;-75
2022/10/13 03:18:13;;;;;;;0.80;0.32;;;;;;;;;;5028410;28;20497;-75
2022/10/13 03:20:39;;;;;;;0.10;0.10;;;;;;;;;;5027816;28;20432;-74
2022/10/13 03:23:05;;;;;;;0.10;0.10;;;;;;;;;;5027935;28;20430;-75
2022/10/13 03:25:32;;;;;;;0.10;0.10;;;;;;;;;;5028691;28;20423;-75
2022/10/13 03:27:58;;;;;;;0.00;0.00;;;;;;;;;;5028259;28;20902;-74
2022/10/13 03:30:25;;;;;;;0.20;0.20;;;;;;;;;;5007901;28;20583;-75
2022/10/13 03:32:51;;;;;;;0.10;0.10;;;;;;;;;;5027445;28;20427;-74
2022/10/13 03:35:17;;;;;;;0.20;0.20;;;;;;;;;;5028556;28;20975;-74
2022/10/13 03:37:43;;;;;;;0.10;0.10;;;;;;;;;;5024481;28;20902;-75
2022/10/13 03:40:10;;;;;;;0.30;0.30;;;;;;;;;;5029066;28;20430;-75
2022/10/13 03:42:36;;;;;;;0.70;0.60;;;;;;;;;;5028694;28;20418;-74
2022/10/13 03:45:03;;;;;;;0.50;0.50;;;;;;;;;;5029670;28;20433;-74
2022/10/13 03:47:29;;;;;;;0.10;0.10;;;;;;;;;;5033796;28;20458;-75
2022/10/13 03:49:56;;;;;;;0.50;0.40;;;;;;;;;;5035803;28;20421;-75
2022/10/13 03:52:22;;;;;;;0.00;0.00;;;;;;;;;;5016651;28;20422;-75
2022/10/13 03:54:48;;;;;;;1.50;0.73;;;;;;;;;;5012089;28;20438;-75
2022/10/13 03:57:14;;;;;;;0.40;0.40;;;;;;;;;;5035061;28;20427;-74
2022/10/13 03:59:40;;;;;;;0.20;0.20;;;;;;;;;;4994430;28;20874;-75
2022/10/13 04:02:07;;;;;;;0.10;0.10;;;;;;;;;;5031410;28;20439;-74
2022/10/13 04:04:34;;;;;;;0.10;0.10;;;;;;;;;;5032809;28;20441;-75
2022/10/13 04:07:00;;;;;;;0.20;0.20;;;;;;;;;;5033526;28;20919;-74
2022/10/13 04:09:26;;;;;;;0.10;0.10;;;;;;;;;;5030778;28;20430;-74
2022/10/13 04:11:53;;;;;;;0.40;0.22;;;;;;;;;;5033215;28;20430;-75
2022/10/13 04:14:19;;;;;;;0.10;0.10;;;;;;;;;;5035939;28;20426;-74
2022/10/13 04:16:45;;;;;;;0.00;0.00;;;;;;;;;;5032530;28;20751;-73
2022/10/13 04:19:12;;;;;;;0.10;0.10;;;;;;;;;;5032465;28;20604;-74
2022/10/13 04:21:39;;;;;;;0.10;0.10;;;;;;;;;;5030290;28;20433;-75
2022/10/13 04:24:05;;;;;;;0.05;0.05;;;;;;;;;;5030414;28;21065;-77
2022/10/13 04:26:33;;;;;;;0.10;0.10;;;;;;;;;;5024402;28;20426;-76
2022/10/13 04:28:59;;;;;;;0.30;0.30;;;;;;;;;;5018830;28;20464;-76
2022/10/13 04:31:27;;;;;;;0.10;0.10;;;;;;;;;;5017488;28;20510;-78
2022/10/13 04:33:53;;;;;;;0.10;0.10;;;;;;;;;;5037596;28;20423;-77
2022/10/13 04:36:20;;;;;;;0.50;0.47;;;;;;;;;;5019160;28;20929;-77
2022/10/13 04:38:46;;;;;;;0.50;0.50;;;;;;;;;;5036114;28;20430;-76
2022/10/13 04:41:13;;;;;;;0.10;0.10;;;;;;;;;;5030896;28;20453;-77
2022/10/13 04:43:40;;;;;;;0.10;0.10;;;;;;;;;;5011528;28;20427;-76
2022/10/13 04:46:13;;;;;;;0.10;0.10;;;;;;;;;;5034261;28;20438;-76
2022/10/13 04:48:39;;;;;;;1.20;0.60;;;;;;;;;;5031139;28;20430;-76
2022/10/13 04:51:06;;;;;;;0.10;0.10;;;;;;;;;;5016994;28;20422;-78
2022/10/13 04:53:33;;;;;;;0.10;0.10;;;;;;;;;;5019029;28;20458;-76
2022/10/13 04:56:04;;;;;;;0.30;0.30;;;;;;;;;;5014327;28;20497;-76
2022/10/13 04:58:30;;;;;;;0.10;0.10;;;;;;;;;;5016414;28;20518;-76
2022/10/13 05:00:56;;;;;;;0.10;0.10;;;;;;;;;;5034143;28;20423;-76
2022/10/13 05:03:23;;;;;;;1.00;0.30;;;;;;;;;;5031833;28;20427;-78
2022/10/13 05:05:49;;;;;;;0.20;0.20;;;;;;;;;;5023944;28;20435;-77
2022/10/13 05:08:15;;;;;;;0.20;0.20;;;;;;;;;;5033056;28;20928;-76
2022/10/13 05:10:41;;;;;;;0.20;0.20;;;;;;;;;;5012186;28;20481;-76
2022/10/13 05:13:07;;;;;;;0.57;0.30;;;;;;;;;;5015062;28;20451;-76
2022/10/13 05:15:33;;;;;;;0.68;0.68;;;;;;;;;;5032316;28;20427;-76
2022/10/13 05:17:59;;;;;;;0.20;0.20;;;;;;;;;;5007449;28;20425;-76
2022/10/13 05:20:26;;;;;;;0.10;0.10;;;;;;;;;;5015738;28;20433;-76
2022/10/13 05:22:52;;;;;;;0.20;0.20;;;;;;;;;;5027474;28;20434;-76
2022/10/13 05:25:18;;;;;;;0.30;0.30;;;;;;;;;;5033413;28;20920;-76
2022/10/13 05:27:45;;;;;;;0.10;0.10;;;;;;;;;;4998354;28;20469;-76
2022/10/13 05:30:11;;;;;;;0.35;0.35;;;;;;;;;;5030452;28;20427;-77
2022/10/13 05:32:37;;;;;;;0.13;0.13;;;;;;;;;;5012985;28;20476;-77
2022/10/13 05:35:03;;;;;;;0.35;0.35;;;;;;;;;;5014820;28;20906;-76
2022/10/13 05:37:29;;;;;;;0.10;0.10;;;;;;;;;;5010581;28;20951;-77
2022/10/13 05:39:56;;;;;;;0.25;0.25;;;;;;;;;;5008035;28;20496;-76
2022/10/13 05:42:22;;;;;;;0.50;0.50;;;;;;;;;;5000627;28;20446;-76
2022/10/13 05:44:48;;;;;;;0.10;0.10;;;;;;;;;;4982529;28;20948;-76
2022/10/13 05:47:14;;;;;;;0.38;0.38;;;;;;;;;;5007497;28;20437;-77
2022/10/13 05:49:40;;;;;;;0.20;0.20;;;;;;;;;;4997416;28;20422;-77
2022/10/13 05:52:08;;;;;;;0.10;0.10;;;;;;;;;;5009290;28;20486;-77
2022/10/13 05:54:42;;;;;;;0.10;0.10;;;;;;;;;;5011508;28;20430;-77
2022/10/13 05:57:11;;;;;;;0.10;0.10;;;;;;;;;;5011563;28;20431;-77
2022/10/13 05:59:40;;;;;;;0.10;0.10;;;;;;;;;;5011731;28;20536;-77
2022/10/13 06:02:07;;;;;;;0.10;0.10;;;;;;;;;;5011278;28;20427;-77
2022/10/13 06:04:35;;;;;;;0.10;0.10;;;;;;;;;;5010861;28;20425;-77
2022/10/13 06:07:01;;;;;;;0.10;0.10;;;;;;;;;;5004136;28;20456;-77
2022/10/13 06:09:33;;;;;;;0.30;0.30;;;;;;;;;;5010780;28;20428;-78
2022/10/13 06:11:59;;;;;;;0.52;0.52;;;;;;;;;;5009149;28;20827;-77
2022/10/13 06:14:25;;;;;;;0.20;0.20;;;;;;;;;;5012674;28;20900;-77
2022/10/13 06:16:51;;;;;;;0.20;0.20;;;;;;;;;;5007105;28;20436;-77
2022/10/13 06:19:17;;;;;;;0.50;0.50;;;;;;;;;;5010622;28;20425;-77
2022/10/13 06:21:43;;;;;;;0.10;0.10;;;;;;;;;;4993043;28;20439;-76
2022/10/13 06:24:09;;;;;;;0.40;0.40;;;;;;;;;;5008489;28;20434;-77
2022/10/13 06:26:35;;;;;;;0.10;0.10;;;;;;;;;;4999633;28;20424;-77
2022/10/13 06:29:01;;;;;;;0.10;0.10;;;;;;;;;;4994117;28;20428;-77
2022/10/13 06:31:27;;;;;;;2.40;0.68;;;;;;;;;;5009652;28;20429;-77
2022/10/13 06:33:53;;;;;;;0.10;0.10;;;;;;;;;;5011039;28;20432;-77
2022/10/13 06:36:19;;;;;;;0.30;0.20;;;;;;;;;;5018441;28;20426;-77
2022/10/13 06:38:46;;;;;;;0.30;0.30;;;;;;;;;;5019132;28;20433;-77
2022/10/13 06:41:13;;;;;;;0.40;0.40;;;;;;;;;;5010193;28;20463;-77
2022/10/13 06:43:39;;;;;;;1.08;1.08;;;;;;;;;;5006966;28;20439;-77
2022/10/13 06:46:05;;;;;;;0.10;0.10;;;;;;;;;;5030743;28;20502;-77
2022/10/13 06:48:31;;;;;;;0.20;0.20;;;;;;;;;;5012529;28;20837;-77
2022/10/13 06:51:09;;;;;;;0.50;0.45;;;;;;;;;;5012499;28;20438;-77
2022/10/13 06:53:35;;;;;;;0.20;0.20;;;;;;;;;;5010249;28;20438;-79
2022/10/13 06:56:02;;;;;;;0.20;0.20;;;;;;;;;;4995615;28;20432;-77
2022/10/13 06:58:29;;;;;;;0.05;0.05;;;;;;;;;;5014192;28;20592;-76
2022/10/13 07:00:55;;;;;;;0.10;0.10;;;;;;;;;;5009049;28;20433;-77
2022/10/13 07:03:22;;;;;;;0.98;0.47;;;;;;;;;;4991694;28;20432;-76
2022/10/13 07:05:48;;;;;;;0.10;0.10;;;;;;;;;;5006400;28;20431;-77
2022/10/13 07:08:14;;;;;;;1.50;0.70;;;;;;;;;;5008542;28;20429;-78
2022/10/13 07:10:41;;;;;;;0.10;0.10;;;;;;;;;;5013416;28;20921;-77
2022/10/13 07:13:07;;;;;;;0.25;0.25;;;;;;;;;;5007287;28;20465;-77
2022/10/13 07:15:33;;;;;;;0.10;0.10;;;;;;;;;;5013154;28;20435;-77
2022/10/13 07:17:59;;;;;;;0.10;0.10;;;;;;;;;;5011082;28;20439;-76
2022/10/13 07:20:25;;;;;;;0.10;0.10;;;;;;;;;;5011669;28;20422;-77
2022/10/13 07:22:54;;;;;;;0.10;0.10;;;;;;;;;;5011951;28;20423;-77
2022/10/13 07:25:21;;;;;;;0.10;0.10;;;;;;;;;;5011420;28;20427;-76
2022/10/13 07:27:47;;;;;;;0.30;0.30;;;;;;;;;;5011989;28;20423;-77
2022/10/13 07:30:13;;;;;;;0.15;0.15;;;;;;;;;;5002328;28;20478;-77
2022/10/13 07:32:43;;;;;;;0.60;0.40;;;;;;;;;;5021223;28;20530;-77
2022/10/13 07:35:09;;;;;;;0.05;0.05;;;;;;;;;;5013074;28;20434;-77
2022/10/13 07:37:36;;;;;;;0.10;0.10;;;;;;;;;;5010265;28;20423;-77
2022/10/13 07:40:03;;;;;;;0.40;0.20;;;;;;;;;;5029816;28;20429;-77
2022/10/13 07:42:30;;;;;;;0.30;0.30;;;;;;;;;;5005593;28;20788;-77
2022/10/13 07:44:56;;;;;;;0.10;0.10;;;;;;;;;;4996925;28;20534;-76
2022/10/13 07:47:22;;;;;;;0.30;0.30;;;;;;;;;;5029579;28;20911;-77
2022/10/13 07:49:48;;;;;;;0.10;0.10;;;;;;;;;;5012762;28;20844;-78
2022/10/13 07:52:14;;;;;;;0.35;0.35;;;;;;;;;;5029686;28;20810;-78
2022/10/13 07:54:40;;;;;;;0.40;0.40;;;;;;;;;;5005751;28;20943;-78
2022/10/13 07:57:06;;;;;;;0.20;0.20;;;;;;;;;;5029497;28;20964;-77
2022/10/13 07:59:32;;;;;;;0.70;0.30;;;;;;;;;;5007775;28;20431;-77
2022/10/13 08:01:59;;;;;;;0.57;0.57;;;;;;;;;;5011234;28;20702;-77
2022/10/13 08:04:28;;;;;;;0.10;0.10;;;;;;;;;;5011943;28;20479;-77
2022/10/13 08:06:54;;;;;;;0.30;0.30;;;;;;;;;;5025551;28;20784;-78
2022/10/13 08:09:20;;;;;;;0.10;0.10;;;;;;;;;;5012813;28;20984;-77
2022/10/13 08:11:46;;;;;;;0.10;0.10;;;;;;;;;;5012172;28;20423;-78
2022/10/13 08:14:13;;;;;;;0.40;0.40;;;;;;;;;;5025433;28;20421;-77
2022/10/13 08:16:43;;;;;;;0.20;0.20;;;;;;;;;;5011349;28;20504;-77
2022/10/13 08:19:09;;;;;;;0.20;0.20;;;;;;;;;;5004371;28;20433;-77
2022/10/13 08:21:36;;;;;;;0.10;0.10;;;;;;;;;;4975317;28;20427;-77
2022/10/13 08:24:02;;;;;;;0.10;0.10;;;;;;;;;;5030823;28;20897;-77
2022/10/13 08:26:28;;;;;;;0.10;0.10;;;;;;;;;;5012969;28;20423;-77
2022/10/13 08:28:54;;;;;;;0.10;0.10;;;;;;;;;;5011706;28;20503;-77
2022/10/13 08:31:20;;;;;;;4.80;0.70;;;;;;;;;;5014321;28;20910;-77
2022/10/13 08:33:47;;;;;;;0.43;0.43;;;;;;;;;;5014798;28;20434;-77
2022/10/13 08:36:16;;;;;;;0.10;0.10;;;;;;;;;;5006242;28;20429;-77
2022/10/13 08:38:43;;;;;;;0.10;0.10;;;;;;;;;;5016549;28;20874;-80
2022/10/13 08:41:30;;;;;;;0.10;0.10;;;;;;;;;;5023445;28;20423;-78
2022/10/13 08:44:06;;;;;;;0.00;0.00;;;;;;;;;;5012406;28;20427;-78
2022/10/13 08:46:37;;;;;;;0.10;0.10;;;;;;;;;;4996104;28;20440;-78
2022/10/13 08:49:05;;;;;;;0.30;0.30;;;;;;;;;;5032154;28;20429;-79
2022/10/13 08:51:31;;;;;;;0.10;0.10;;;;;;;;;;5005376;28;20505;-77
2022/10/13 08:53:58;;;;;;;0.40;0.30;;;;;;;;;;5005635;28;20458;-78
2022/10/13 08:56:26;;;;;;;0.43;0.43;;;;;;;;;;5005480;28;20511;-82
2022/10/13 08:58:55;;;;;;;0.10;0.10;;;;;;;;;;5010390;28;20847;-78
2022/10/13 09:01:28;;;;;;;0.30;0.30;;;;;;;;;;4998033;28;20433;-82
2022/10/13 09:04:06;;;;;;;0.20;0.20;;;;;;;;;;5016452;28;20556;-81
2022/10/13 09:06:33;;;;;;;0.20;0.20;;;;;;;;;;5013980;28;20430;-81
2022/10/13 09:09:17;;;;;;;0.10;0.10;;;;;;;;;;5014083;28;20443;-81
2022/10/13 09:11:48;;;;;;;0.15;0.15;;;;;;;;;;5017072;28;20434;-82
2022/10/13 09:14:22;;;;;;;0.20;0.20;;;;;;;;;;5015736;28;20427;-81
2022/10/13 09:16:49;;;;;;;0.30;0.30;;;;;;;;;;5002773;28;20428;-84
2022/10/13 09:19:15;;;;;;;0.20;0.20;;;;;;;;;;5016047;28;20429;-83
2022/10/13 09:21:41;;;;;;;0.00;0.00;;;;;;;;;;5016319;28;20431;-85
2022/10/13 09:24:11;;;;;;;0.20;0.20;;;;;;;;;;5008391;28;20499;-83
2022/10/13 09:26:38;;;;;;;0.32;0.32;;;;;;;;;;5017401;28;20508;-82
2022/10/13 09:29:08;;;;;;;0.10;0.10;;;;;;;;;;5003831;28;20429;-83
2022/10/13 09:31:36;;;;;;;0.10;0.10;;;;;;;;;;5000484;28;20425;-84
2022/10/13 09:34:11;;;;;;;0.10;0.10;;;;;;;;;;4997698;28;20767;-84
2022/10/13 09:36:37;;;;;;;0.15;0.15;;;;;;;;;;5010195;28;20851;-86
2022/10/13 09:39:06;;;;;;;0.30;0.30;;;;;;;;;;5004804;28;20792;-83
2022/10/13 09:41:33;;;;;;;0.10;0.10;;;;;;;;;;4994830;28;20485;-84
2022/10/13 09:44:04;;;;;;;0.10;0.10;;;;;;;;;;5006127;28;20436;-85
2022/10/13 09:46:35;;;;;;;0.40;0.40;;;;;;;;;;4996055;28;20482;-84
2022/10/13 09:49:03;;;;;;;0.10;0.10;;;;;;;;;;5010956;28;20428;-83
2022/10/13 09:51:32;;;;;;;0.10;0.10;;;;;;;;;;4996894;28;20434;-86
2022/10/13 09:53:58;;;;;;;0.10;0.10;;;;;;;;;;5004992;28;20437;-85
2022/10/13 09:56:42;;;;;;;0.10;0.10;;;;;;;;;;5012047;28;20461;-84
2022/10/13 09:59:11;;;;;;;0.60;0.60;;;;;;;;;;5004887;28;20432;-85
2022/10/13 10:01:39;;;;;;;0.10;0.10;;;;;;;;;;5006644;28;20431;-83
2022/10/13 10:04:08;;;;;;;0.10;0.10;;;;;;;;;;5011312;28;20796;-83
2022/10/13 10:06:34;;;;;;;0.13;0.13;;;;;;;;;;4996112;28;20401;-84
2022/10/13 10:09:24;;;;;;;0.20;0.20;;;;;;;;;;5010470;28;20433;-86
2022/10/13 10:11:51;;;;;;;0.20;0.20;;;;;;;;;;4968650;28;20439;-85
2022/10/13 10:14:24;;;;;;;0.80;0.40;;;;;;;;;;4998121;28;20785;-83
2022/10/13 10:16:56;;;;;;;0.10;0.10;;;;;;;;;;5007408;28;20440;-82
2022/10/13 10:19:29;;;;;;;0.10;0.10;;;;;;;;;;5009116;28;20431;-82
2022/10/13 10:22:18;;;;;;;0.10;0.10;;;;;;;;;;5011120;28;20436;-82
2022/10/13 10:24:44;;;;;;;0.20;0.20;;;;;;;;;;4995640;28;20468;-85
2022/10/13 10:27:20;;;;;;;0.10;0.10;;;;;;;;;;5010326;28;20829;-82
2022/10/13 10:29:57;;;;;;;0.20;0.20;;;;;;;;;;5010273;28;20518;-83
2022/10/13 10:32:41;;;;;;;0.10;0.10;;;;;;;;;;5008337;28;20425;-83
2022/10/13 10:35:12;;;;;;;0.10;0.10;;;;;;;;;;4995641;28;20583;-82
2022/10/13 10:37:43;;;;;;;0.40;0.40;;;;;;;;;;5006690;28;20433;-82
2022/10/13 10:40:12;;;;;;;0.10;0.10;;;;;;;;;;5010019;28;20433;-84
2022/10/13 10:42:43;;;;;;;0.40;0.40;;;;;;;;;;5008472;28;20438;-84
2022/10/13 10:45:16;;;;;;;0.40;0.30;;;;;;;;;;5004248;28;20954;-87
2022/10/13 10:47:44;;;;;;;0.20;0.20;;;;;;;;;;5002104;28;20514;-87
2022/10/13 10:50:13;;;;;;;0.10;0.10;;;;;;;;;;4994514;28;20432;-86
2022/10/13 10:52:48;;;;;;;0.40;0.40;;;;;;;;;;5010699;28;20954;-86
2022/10/13 10:55:22;;;;;;;0.30;0.30;;;;;;;;;;4981987;28;20468;-86
2022/10/13 10:57:51;;;;;;;0.10;0.10;;;;;;;;;;4999407;28;20539;-87
2022/10/13 11:00:19;;;;;;;0.10;0.10;;;;;;;;;;4992606;28;20443;-85
2022/10/13 11:02:48;;;;;;;0.60;0.15;;;;;;;;;;5026366;28;20504;-84
2022/10/13 11:05:16;;;;;;;0.10;0.10;;;;;;;;;;5009421;28;20463;-84
2022/10/13 11:07:42;;;;;;;0.10;0.10;;;;;;;;;;4995436;28;20441;-83
2022/10/13 11:10:17;;;;;;;0.10;0.10;;;;;;;;;;4994629;28;20444;-83
2022/10/13 11:12:52;;;;;;;0.30;0.30;;;;;;;;;;5010153;28;20427;-85
2022/10/13 11:15:24;;;;;;;0.90;0.50;;;;;;;;;;4993259;28;20450;-86
2022/10/13 11:17:51;;;;;;;1.00;0.60;;;;;;;;;;4994298;28;21080;-85
2022/10/13 11:20:17;;;;;;;0.10;0.10;;;;;;;;;;4993200;28;20429;-85
2022/10/13 11:23:03;;;;;;;0.10;0.10;;;;;;;;;;4994284;28;20440;-83
2022/10/13 11:25:39;;;;;;;0.20;0.10;;;;;;;;;;5009946;28;20471;-82
2022/10/13 11:28:21;;;;;;;0.10;0.10;;;;;;;;;;4998421;28;20442;-82
2022/10/13 11:30:48;;;;;;;0.90;0.50;;;;;;;;;;4996910;28;20439;-83
2022/10/13 11:33:33;;;;;;;0.00;0.00;;;;;;;;;;5010057;28;20417;-83
2022/10/13 11:36:18;;;;;;;0.10;0.10;;;;;;;;;;4987453;28;20439;-83
2022/10/13 11:38:48;;;;;;;0.20;0.20;;;;;;;;;;5013901;28;20861;-84
2022/10/13 11:41:21;;;;;;;0.15;0.15;;;;;;;;;;5011613;28;20423;-83
2022/10/13 11:43:51;;;;;;;0.10;0.10;;;;;;;;;;5002888;28;20443;-83
2022/10/13 11:46:33;;;;;;;0.00;0.00;;;;;;;;;;5010858;28;20436;-83
2022/10/13 11:49:15;;;;;;;0.13;0.13;;;;;;;;;;4995847;28;20724;-83
2022/10/13 11:52:01;;;;;;;0.20;0.20;;;;;;;;;;4984683;28;20867;-84
2022/10/13 11:54:30;;;;;;;0.20;0.20;;;;;;;;;;5014606;28;20633;-84
2022/10/13 11:56:57;;;;;;;0.43;0.43;;;;;;;;;;5011494;28;20450;-82
2022/10/13 11:59:25;;;;;;;0.10;0.10;;;;;;;;;;5030255;28;20439;-82
2022/10/13 12:01:58;;;;;;;0.10;0.10;;;;;;;;;;5001132;28;20463;-81
2022/10/13 12:04:25;;;;;;;0.10;0.10;;;;;;;;;;5027707;28;20431;-81
2022/10/13 12:06:57;;;;;;;0.30;0.30;;;;;;;;;;5017852;28;20434;-83
2022/10/13 12:09:23;;;;;;;0.10;0.10;;;;;;;;;;5006492;28;20613;-80
2022/10/13 12:11:57;;;;;;;0.10;0.10;;;;;;;;;;5034531;28;20755;-82
2022/10/13 12:14:26;;;;;;;0.10;0.10;;;;;;;;;;5006200;28;20561;-82
2022/10/13 12:16:57;;;;;;;0.10;0.10;;;;;;;;;;5016593;28;20770;-81
2022/10/13 12:19:24;;;;;;;0.10;0.10;;;;;;;;;;5007288;28;21158;-85
2022/10/13 12:21:52;;;;;;;0.10;0.10;;;;;;;;;;5027225;28;20426;-81
2022/10/13 12:24:21;;;;;;;0.10;0.10;;;;;;;;;;5014681;28;20427;-81
2022/10/13 12:26:47;;;;;;;0.10;0.10;;;;;;;;;;5031576;28;20532;-83
2022/10/13 12:29:14;;;;;;;0.20;0.20;;;;;;;;;;5015411;28;20440;-83
2022/10/13 12:31:42;;;;;;;0.20;0.20;;;;;;;;;;5013563;28;20517;-84
2022/10/13 12:34:23;;;;;;;0.10;0.10;;;;;;;;;;5014340;28;20431;-83
2022/10/13 12:36:57;;;;;;;0.10;0.10;;;;;;;;;;5013845;28;20490;-83
2022/10/13 12:39:24;;;;;;;0.10;0.10;;;;;;;;;;5015246;28;20526;-85
2022/10/13 12:41:50;;;;;;;0.10;0.10;;;;;;;;;;5020768;28;20411;-83
2022/10/13 12:44:19;;;;;;;0.20;0.20;;;;;;;;;;5015261;28;20427;-82
2022/10/13 12:46:46;;;;;;;0.10;0.10;;;;;;;;;;5012534;28;20422;-82
2022/10/13 12:49:12;;;;;;;0.20;0.20;;;;;;;;;;5010293;28;20430;-82
2022/10/13 12:51:39;;;;;;;0.17;0.17;;;;;;;;;;5011364;28;20426;-82
2022/10/13 12:54:21;;;;;;;0.10;0.10;;;;;;;;;;5008344;28;20518;-82
2022/10/13 12:56:47;;;;;;;0.10;0.10;;;;;;;;;;5013501;28;20431;-82
2022/10/13 12:59:16;;;;;;;0.10;0.10;;;;;;;;;;5014608;28;20488;-83
2022/10/13 13:01:42;;;;;;;0.10;0.10;;;;;;;;;;5015199;28;20516;-83
2022/10/13 13:04:27;;;;;;;0.10;0.10;;;;;;;;;;4998066;28;20457;-82
2022/10/13 13:06:55;;;;;;;0.10;0.10;;;;;;;;;;5011747;28;20435;-82
2022/10/13 13:09:32;;;;;;;0.10;0.10;;;;;;;;;;5014053;28;20437;-82
2022/10/13 13:12:04;;;;;;;0.00;0.00;;;;;;;;;;5006127;28;20458;-81
2022/10/13 13:14:37;;;;;;;0.10;0.10;;;;;;;;;;5014522;28;20654;-82
2022/10/13 13:17:06;;;;;;;0.10;0.10;;;;;;;;;;5014477;28;20431;-83
2022/10/13 13:19:33;;;;;;;0.10;0.10;;;;;;;;;;5014447;28;20446;-82
2022/10/13 13:21:59;;;;;;;0.10;0.10;;;;;;;;;;5015218;28;20438;-82
2022/10/13 13:24:25;;;;;;;0.10;0.10;;;;;;;;;;5013550;28;20434;-82
2022/10/13 13:26:52;;;;;;;0.10;0.10;;;;;;;;;;4994242;28;20428;-82
2022/10/13 13:29:18;;;;;;;0.10;0.10;;;;;;;;;;5007648;28;20469;-82
2022/10/13 13:31:44;;;;;;;0.70;0.30;;;;;;;;;;5013107;28;20426;-83
2022/10/13 13:34:10;;;;;;;0.10;0.10;;;;;;;;;;4996593;28;20427;-82
2022/10/13 13:36:36;;;;;;;0.40;0.40;;;;;;;;;;5013672;28;20446;-82
2022/10/13 13:39:02;;;;;;;0.40;0.40;;;;;;;;;;5014861;28;20534;-82
2022/10/13 13:41:30;;;;;;;0.17;0.17;;;;;;;;;;5012957;28;20493;-81
2022/10/13 13:43:56;;;;;;;0.40;0.30;;;;;;;;;;5008248;28;20435;-81
2022/10/13 13:46:24;;;;;;;0.10;0.10;;;;;;;;;;5013880;28;20866;-81
2022/10/13 13:48:50;;;;;;;0.20;0.20;;;;;;;;;;5010689;28;20433;-82
2022/10/13 13:51:16;;;;;;;0.10;0.10;;;;;;;;;;5030167;28;20438;-81
2022/10/13 13:53:42;;;;;;;0.20;0.20;;;;;;;;;;5011248;28;20509;-82
2022/10/13 13:56:12;;;;;;;0.13;0.13;;;;;;;;;;5008504;28;20432;-81
2022/10/13 13:58:38;;;;;;;0.30;0.30;;;;;;;;;;5013558;28;20763;-80
2022/10/13 14:01:04;;;;;;;0.10;0.10;;;;;;;;;;5013599;28;20926;-81
2022/10/13 14:03:30;;;;;;;0.10;0.10;;;;;;;;;;5013519;28;20512;-81
2022/10/13 14:05:56;;;;;;;0.00;0.00;;;;;;;;;;4994292;28;20463;-80
2022/10/13 14:08:22;;;;;;;0.00;0.00;;;;;;;;;;5014150;28;20431;-81
2022/10/13 14:10:48;;;;;;;0.10;0.10;;;;;;;;;;5013474;28;20537;-82
2022/10/13 14:13:14;;;;;;;0.10;0.10;;;;;;;;;;5013533;28;20763;-81
2022/10/13 14:15:40;;;;;;;0.10;0.10;;;;;;;;;;5003481;28;20835;-81
2022/10/13 14:18:06;;;;;;;0.00;0.00;;;;;;;;;;4989248;28;20818;-80
2022/10/13 14:20:32;;;;;;;0.13;0.13;;;;;;;;;;5007326;28;20880;-81
2022/10/13 14:22:59;;;;;;;0.30;0.30;;;;;;;;;;5027240;28;20423;-81
2022/10/13 14:25:25;;;;;;;0.30;0.30;;;;;;;;;;5008774;28;20552;-81
2022/10/13 14:27:51;;;;;;;0.30;0.20;;;;;;;;;;5017687;28;20502;-81
2022/10/13 14:30:17;;;;;;;0.30;0.20;;;;;;;;;;5013529;28;20430;-82
2022/10/13 14:32:43;;;;;;;0.10;0.10;;;;;;;;;;5012589;28;20982;-81
2022/10/13 14:35:09;;;;;;;0.10;0.10;;;;;;;;;;5031128;28;20469;-81
2022/10/13 14:37:35;;;;;;;0.10;0.10;;;;;;;;;;5008415;28;20437;-79
2022/10/13 14:40:01;;;;;;;0.40;0.40;;;;;;;;;;5009211;28;20918;-86
2022/10/13 14:42:27;;;;;;;0.10;0.10;;;;;;;;;;5011666;28;20466;-86
2022/10/13 14:44:53;;;;;;;0.10;0.10;;;;;;;;;;5011635;28;20427;-85
2022/10/13 14:47:19;;;;;;;0.10;0.10;;;;;;;;;;5012088;28;20914;-88
2022/10/13 14:49:45;;;;;;;0.40;0.40;;;;;;;;;;5011874;28;20437;-82